Terminal Aerodrome Forecast
Issued by NWS Shreveport, LA

Home | Current Version | Previous Version | Text Only | Print | Product List | Glossary On
Versions: 1 2 3 4 5 6 7 8 9 10 11 12 13 14 15 16 17 18 19 20
000
FTUS44 KSHV 191750
TAFMLU
TAF
KMLU 191750Z 1918/2018 25007KT P6SM SCT020
     FM192300 23008KT P6SM VCTS BKN040CB
     FM200400 27008KT P6SM BKN040
     FM201200 32008KT P6SM FEW050 SCT250=

USA.gov is the U.S. government's official web portal to all federal, state and local government web resources and services.